createdAt,value
2022-08-27T00:02:29.186Z,23.40
2022-08-27T00:08:31.450Z,23.30
2022-08-27T00:14:35.948Z,23.30
2022-08-27T00:20:38.398Z,23.30
2022-08-27T00:26:43.317Z,23.20
2022-08-27T00:32:46.301Z,23.20
2022-08-27T00:38:49.585Z,23.20
2022-08-27T00:44:56.727Z,23.10
2022-08-27T00:50:59.122Z,23.10
2022-08-27T00:57:01.900Z,23.10
2022-08-27T01:03:04.581Z,23.00
2022-08-27T01:09:12.497Z,23.00
2022-08-27T01:15:20.111Z,23.00
2022-08-27T01:21:29.369Z,22.90
2022-08-27T01:27:32.082Z,22.80
2022-08-27T01:33:34.328Z,22.80
2022-08-27T01:39:37.150Z,22.80
2022-08-27T01:45:46.739Z,22.70
2022-08-27T01:51:48.912Z,22.70
2022-08-27T01:57:52.051Z,22.60
2022-08-27T02:03:54.263Z,22.60
2022-08-27T02:09:56.650Z,22.60
2022-08-27T02:15:59.153Z,22.50
2022-08-27T02:22:01.593Z,22.40
2022-08-27T02:28:05.130Z,22.40
2022-08-27T02:34:07.679Z,22.40
2022-08-27T02:40:11.525Z,22.30
2022-08-27T02:46:14.235Z,22.30
2022-08-27T02:52:17.550Z,22.30
2022-08-27T02:58:27.611Z,22.20
2022-08-27T03:04:29.995Z,22.30
2022-08-27T03:10:32.015Z,22.20
2022-08-27T03:16:35.889Z,22.20
2022-08-27T03:22:40.445Z,22.00
2022-08-27T03:28:42.731Z,22.10
2022-08-27T03:34:44.834Z,22.10
2022-08-27T03:40:47.596Z,22.10
2022-08-27T03:46:51.706Z,22.10
2022-08-27T03:52:53.848Z,22.10
2022-08-27T03:58:56.092Z,22.20
2022-08-27T04:04:58.470Z,22.40
2022-08-27T04:11:00.753Z,22.50
2022-08-27T04:17:03.366Z,22.60
2022-08-27T04:23:06.058Z,22.90
2022-08-27T04:29:08.866Z,23.20
2022-08-27T04:35:12.120Z,23.50
2022-08-27T04:41:20.271Z,23.90
2022-08-27T04:47:22.459Z,24.30
2022-08-27T04:53:24.774Z,24.50
2022-08-27T04:59:27.216Z,25.00
2022-08-27T05:05:29.638Z,25.50
2022-08-27T05:11:35.846Z,27.50
2022-08-27T05:17:38.137Z,29.10
2022-08-27T05:23:40.303Z,30.30
2022-08-27T05:29:42.468Z,31.10
2022-08-27T05:35:49.162Z,31.90
2022-08-27T05:41:52.842Z,30.80
2022-08-27T05:47:58.927Z,31.10
2022-08-27T05:54:08.966Z,32.10
2022-08-27T06:00:30.442Z,33.00
2022-08-27T06:06:37.949Z,34.40
2022-08-27T06:12:40.192Z,35.40
2022-08-27T06:18:45.357Z,34.50
2022-08-27T06:24:47.898Z,35.40
2022-08-27T06:30:50.532Z,38.00
2022-08-27T06:36:53.909Z,37.90
2022-08-27T06:42:56.257Z,36.20
2022-08-27T06:49:01.199Z,36.20
2022-08-27T06:55:04.044Z,37.80
2022-08-27T07:01:18.420Z,37.60
2022-08-27T07:07:35.526Z,39.00
2022-08-27T07:13:41.899Z,40.40
2022-08-27T07:19:44.535Z,40.90
2022-08-27T07:25:47.000Z,41.00
2022-08-27T07:31:49.346Z,40.90
2022-08-27T07:37:51.810Z,41.20
2022-08-27T07:44:12.690Z,41.20
2022-08-27T07:50:15.663Z,42.10
2022-08-27T07:56:18.333Z,41.60
2022-08-27T08:02:20.546Z,41.80
2022-08-27T08:08:23.005Z,41.80
2022-08-27T08:14:25.543Z,42.30
2022-08-27T08:20:54.187Z,42.40
2022-08-27T08:26:50.594Z,42.80
2022-08-27T08:32:52.883Z,42.40
2022-08-27T08:38:55.466Z,42.80
2022-08-27T08:45:00.903Z,43.20
2022-08-27T08:51:22.652Z,42.40
2022-08-27T08:57:31.392Z,42.90
2022-08-27T09:03:42.239Z,43.20
2022-08-27T09:09:50.461Z,42.70
2022-08-27T09:15:58.395Z,42.00
2022-08-27T09:22:11.035Z,42.30
2022-08-27T09:28:46.146Z,43.00
2022-08-27T09:34:48.364Z,42.20
2022-08-27T09:40:52.606Z,42.30
2022-08-27T09:47:02.492Z,41.30
2022-08-27T09:53:05.256Z,41.90
2022-08-27T09:59:36.342Z,41.20
2022-08-27T10:05:45.411Z,41.40
2022-08-27T10:12:00.537Z,41.50
2022-08-27T10:18:20.048Z,41.80
2022-08-27T10:24:28.927Z,41.90
2022-08-27T10:31:08.615Z,41.80
2022-08-27T10:37:52.757Z,41.30
2022-08-27T10:44:07.226Z,41.20
2022-08-27T10:50:39.029Z,41.10
2022-08-27T10:57:26.157Z,40.20
2022-08-27T11:03:47.064Z,40.90
2022-08-27T11:09:56.622Z,40.80
2022-08-27T11:16:03.269Z,40.40
2022-08-27T11:22:26.365Z,40.20
2022-08-27T11:28:39.200Z,40.80
2022-08-27T11:34:50.469Z,41.10
2022-08-27T11:41:11.549Z,40.60
2022-08-27T11:47:20.650Z,40.20
2022-08-27T11:53:29.451Z,40.90
2022-08-27T11:59:34.616Z,40.80
2022-08-27T12:05:44.833Z,39.90
2022-08-27T12:12:04.941Z,39.50
2022-08-27T12:18:24.254Z,39.90
2022-08-27T12:24:50.946Z,39.80
2022-08-27T12:30:58.936Z,40.80
2022-08-27T12:37:02.210Z,40.30
2022-08-27T12:43:14.159Z,40.00
2022-08-27T12:49:38.843Z,40.10
2022-08-27T12:56:18.856Z,40.00
2022-08-27T13:02:38.733Z,39.90
2022-08-27T13:08:40.988Z,40.10
2022-08-27T13:14:43.620Z,38.70
2022-08-27T13:20:52.626Z,38.80
2022-08-27T13:26:55.634Z,38.60
2022-08-27T13:32:58.430Z,38.00
2022-08-27T13:39:03.586Z,37.50
2022-08-27T13:45:08.128Z,36.20
2022-08-27T13:51:12.405Z,35.80
2022-08-27T13:57:28.583Z,35.20
2022-08-27T14:03:34.530Z,34.70
2022-08-27T14:09:43.673Z,34.40
2022-08-27T14:15:48.607Z,34.30
2022-08-27T14:21:52.814Z,34.30
2022-08-27T14:27:57.703Z,34.10
2022-08-27T14:34:00.106Z,33.90
2022-08-27T14:40:02.822Z,33.80
2022-08-27T14:46:09.140Z,33.70
2022-08-27T14:52:12.467Z,33.50
2022-08-27T14:58:15.198Z,33.30
2022-08-27T15:04:17.638Z,32.90
2022-08-27T15:10:20.869Z,32.70
2022-08-27T15:16:34.399Z,32.50
2022-08-27T15:22:38.633Z,32.20
2022-08-27T15:28:46.114Z,32.20
2022-08-27T15:34:53.553Z,32.10
2022-08-27T15:40:57.409Z,32.10
2022-08-27T15:46:59.518Z,32.10
2022-08-27T15:53:05.192Z,32.10
2022-08-27T15:59:07.480Z,32.30
2022-08-27T16:05:11.888Z,32.00
2022-08-27T16:11:14.236Z,31.70
2022-08-27T16:17:16.644Z,31.50
2022-08-27T16:23:20.380Z,31.30
2022-08-27T16:29:22.439Z,31.10
2022-08-27T16:35:25.411Z,30.90
2022-08-27T16:41:28.062Z,30.80
2022-08-27T16:47:30.202Z,30.50
2022-08-27T16:53:35.091Z,30.20
2022-08-27T16:59:37.410Z,29.90
2022-08-27T17:05:40.012Z,29.70
2022-08-27T17:11:45.107Z,29.50
2022-08-27T17:17:47.483Z,29.20
2022-08-27T17:23:52.949Z,29.10
2022-08-27T17:29:55.372Z,28.90
2022-08-27T17:35:58.370Z,28.70
2022-08-27T17:42:01.239Z,28.50
2022-08-27T17:48:04.449Z,28.30
2022-08-27T17:54:34.270Z,28.10
2022-08-27T18:00:36.662Z,28.00
2022-08-27T18:06:39.396Z,27.80
2022-08-27T18:12:43.097Z,27.70
2022-08-27T18:18:45.293Z,27.60
2022-08-27T18:24:47.888Z,27.50
2022-08-27T18:30:50.928Z,27.40
2022-08-27T18:36:53.460Z,27.30
2022-08-27T18:42:56.283Z,27.20
2022-08-27T18:48:58.661Z,27.20
2022-08-27T18:55:01.378Z,27.30
2022-08-27T19:01:05.095Z,27.30
2022-08-27T19:07:07.459Z,27.30
2022-08-27T19:13:10.027Z,27.40
2022-08-27T19:19:15.148Z,27.30
2022-08-27T19:25:18.450Z,27.30
2022-08-27T19:31:20.710Z,27.20
2022-08-27T19:37:26.800Z,27.10
2022-08-27T19:43:29.358Z,27.00
2022-08-27T19:49:31.790Z,26.90
2022-08-27T19:55:34.104Z,26.80
2022-08-27T20:01:36.338Z,26.80
2022-08-27T20:07:40.990Z,26.60
2022-08-27T20:13:50.348Z,26.50
2022-08-27T20:19:53.039Z,26.40
2022-08-27T20:26:00.473Z,26.30
2022-08-27T20:32:04.596Z,26.20
2022-08-27T20:38:07.322Z,26.10
2022-08-27T20:44:09.651Z,25.90
2022-08-27T20:50:13.524Z,25.80
2022-08-27T20:56:15.979Z,25.80
2022-08-27T21:02:23.356Z,25.70
2022-08-27T21:08:25.731Z,25.60
2022-08-27T21:14:28.175Z,25.60
2022-08-27T21:20:32.831Z,25.50
2022-08-27T21:26:36.356Z,25.40
2022-08-27T21:32:38.693Z,25.30
2022-08-27T21:38:41.354Z,25.30
2022-08-27T21:44:43.884Z,25.20
2022-08-27T21:50:46.319Z,25.20
2022-08-27T21:56:49.275Z,25.20
2022-08-27T22:02:51.931Z,25.10
2022-08-27T22:08:54.285Z,25.00
2022-08-27T22:14:56.504Z,24.90
2022-08-27T22:20:59.305Z,24.80
2022-08-27T22:27:01.997Z,24.80
2022-08-27T22:33:04.639Z,24.70
2022-08-27T22:39:07.067Z,24.70
2022-08-27T22:45:10.362Z,24.60
2022-08-27T22:51:14.210Z,24.60
2022-08-27T22:57:16.530Z,24.50
2022-08-27T23:03:18.830Z,24.40
2022-08-27T23:09:21.194Z,24.40
2022-08-27T23:15:25.986Z,24.30
2022-08-27T23:21:28.806Z,24.20
2022-08-27T23:27:31.305Z,24.20
2022-08-27T23:33:33.486Z,24.10
2022-08-27T23:39:35.823Z,24.00
2022-08-27T23:45:40.679Z,24.00
2022-08-27T23:51:43.338Z,23.90
2022-08-27T23:57:45.439Z,23.80
